Paramount Hamilton — 2CWB2 — position and weather

sailwx.info

Track history (hours):
 
Tides and Currents Weather Stations Pressure Air Temp Water Temp Dewpoint Dewpoint Depression Visibility Wind Speed Wind Dir Waves Ship Positions

Paramount Hamilton

Last reported at 2017-Aug-18 15:10 UTC. Time now 2017-Aug-19 22:32 UTC.
Position N 26°21' W 079°26'.

Length 249 m; draft 11 m.

Type: Tanker. MMSI: 235076274.

Date/timePositionNaut miles runAvg speedWind from/ knotsBaromVisibWave heightAir tempDewpointWater temp
2017-Aug-18 15:10N 26°21' W 079°26'215.0
2017-Aug-18 15:01N 26°19' W 079°27'1515.1
2017-Aug-18 14:00N 26°04' W 079°29'815.2
2017-Aug-18 13:30N 25°57' W 079°31'1215.2
2017-Aug-18 12:43N 25°45' W 079°33'315.3
2017-Aug-18 12:30N 25°42' W 079°33'815.3
2017-Aug-18 12:00N 25°34' W 079°35'  
2017-Aug-14 06:42N 29°19' W 094°40'611.1
2017-Aug-14 06:11N 29°21' W 094°46'210.4
2017-Aug-14 06:00N 29°22' W 094°48'510.4
2017-Aug-14 05:30N 29°26' W 094°50'510.5
2017-Aug-14 05:00N 29°31' W 094°53'511.0
2017-Aug-14 04:30N 29°36' W 094°56'510.6
2017-Aug-14 04:01N 29°40' W 094°59'4 7.4
2017-Aug-14 03:30N 29°43' W 095°01'0 0.7
2017-Aug-14 02:59N 29°44' W 095°01'0 0.0
2017-Aug-14 02:29N 29°44' W 095°01'0 0.0
2017-Aug-14 01:59N 29°44' W 095°01'0 0.0
2017-Aug-14 01:29N 29°44' W 095°01'0 0.0
2017-Aug-14 00:59N 29°44' W 095°01'0 0.0
2017-Aug-14 00:29N 29°44' W 095°01'0 0.0
2017-Aug-13 23:59N 29°44' W 095°01'0 0.0
2017-Aug-13 23:29N 29°44' W 095°01'0 0.0
2017-Aug-13 22:59N 29°44' W 095°01'0 0.0
2017-Aug-13 22:29N 29°44' W 095°01'0 0.0
2017-Aug-13 21:59N 29°44' W 095°01'0 0.0
2017-Aug-13 21:29N 29°44' W 095°01'0 0.0
2017-Aug-13 20:59N 29°44' W 095°01'0 0.0
2017-Aug-13 20:29N 29°44' W 095°01'0 0.0
2017-Aug-13 19:59N 29°44' W 095°01'0 0.0
2017-Aug-13 19:29N 29°44' W 095°01'0 0.0
2017-Aug-13 18:59N 29°44' W 095°01'0 0.0
2017-Aug-13 18:29N 29°44' W 095°01'0 0.0
2017-Aug-13 17:59N 29°44' W 095°01'0 0.0
2017-Aug-13 17:29N 29°44' W 095°01'0 0.0
2017-Aug-13 16:59N 29°44' W 095°01'0 0.0
2017-Aug-13 16:29N 29°44' W 095°01'0 0.0
2017-Aug-13 15:59N 29°44' W 095°01'0 0.0
2017-Aug-13 15:29N 29°44' W 095°01'0 0.0
2017-Aug-13 14:59N 29°44' W 095°01'0 0.0
2017-Aug-13 14:23N 29°44' W 095°01'0 0.0
2017-Aug-13 13:59N 29°44' W 095°01'0 0.0
2017-Aug-13 13:29N 29°44' W 095°01'0 0.0
2017-Aug-13 12:59N 29°44' W 095°01'0 0.0
2017-Aug-13 12:29N 29°44' W 095°01'0 0.0
2017-Aug-13 11:59N 29°44' W 095°01'0 0.0
2017-Aug-13 11:29N 29°44' W 095°01'0 0.0
2017-Aug-13 10:59N 29°44' W 095°01'0 0.0
2017-Aug-13 10:29N 29°44' W 095°01'0 0.0
2017-Aug-13 09:56N 29°44' W 095°01'0 0.0
2017-Aug-13 09:17N 29°44' W 095°01'0 0.0
2017-Aug-13 08:59N 29°44' W 095°01'0 0.0
2017-Aug-13 08:29N 29°44' W 095°01'0 0.0
2017-Aug-13 07:59N 29°44' W 095°01'0 0.0
2017-Aug-13 07:29N 29°44' W 095°01'0 0.0
2017-Aug-13 06:59N 29°44' W 095°01'0 0.0
2017-Aug-13 06:29N 29°44' W 095°01'0 0.0
2017-Aug-13 05:59N 29°44' W 095°01'0 0.0
2017-Aug-13 05:29N 29°44' W 095°01'0 0.0
2017-Aug-13 04:59N 29°44' W 095°01'0 0.0
2017-Aug-13 04:29N 29°44' W 095°01'0 0.0
2017-Aug-13 03:56N 29°44' W 095°01'0 0.0
2017-Aug-13 03:29N 29°44' W 095°01'0 0.0
2017-Aug-13 02:59N 29°44' W 095°01'0 0.0
2017-Aug-13 02:29N 29°44' W 095°01'0 0.0
2017-Aug-13 01:59N 29°44' W 095°01'0 0.0
2017-Aug-13 01:29N 29°44' W 095°01'0 0.0
2017-Aug-13 00:59N 29°44' W 095°01'0 0.0
2017-Aug-13 00:29N 29°44' W 095°01'0 0.0
2017-Aug-12 23:56N 29°44' W 095°01'0 0.4
2017-Aug-12 23:30N 29°44' W 095°01'2 4.3
2017-Aug-12 23:00N 29°42' W 094°60'4 8.7
2017-Aug-12 22:30N 29°38' W 094°58'5 9.8
2017-Aug-12 22:00N 29°34' W 094°55'5 9.8
2017-Aug-12 21:30N 29°30' W 094°52'5 9.5
2017-Aug-12 21:00N 29°25' W 094°50'5 9.2
2017-Aug-12 20:30N 29°21' W 094°47'11 0.7
2017-Aug-12 04:05N 29°13' W 094°39'0 0.0
2017-Aug-12 03:50N 29°13' W 094°39'  
Track history (hours):
 
Tides and Currents Weather Stations Pressure Air Temp Water Temp Dewpoint Dewpoint Depression Visibility Wind Speed Wind Dir Waves Ship Positions

Paramount Hamilton

Last reported at 2017-Aug-18 15:10 UTC. Time now 2017-Aug-19 22:32 UTC.
Position N 26°21' W 079°26'.

Length 249 m; draft 11 m.

Type: Tanker. MMSI: 235076274.

Date/timePositionNaut miles runAvg speedWind from/ knotsBaromVisibWave heightAir tempDewpointWater temp
2017-Aug-18 15:10N 26°21' W 079°26'215.0
2017-Aug-18 15:01N 26°19' W 079°27'1515.1
2017-Aug-18 14:00N 26°04' W 079°29'815.2
2017-Aug-18 13:30N 25°57' W 079°31'1215.2
2017-Aug-18 12:43N 25°45' W 079°33'315.3
2017-Aug-18 12:30N 25°42' W 079°33'815.3
2017-Aug-18 12:00N 25°34' W 079°35'  
2017-Aug-14 06:42N 29°19' W 094°40'611.1
2017-Aug-14 06:11N 29°21' W 094°46'210.4
2017-Aug-14 06:00N 29°22' W 094°48'510.4
2017-Aug-14 05:30N 29°26' W 094°50'510.5
2017-Aug-14 05:00N 29°31' W 094°53'511.0
2017-Aug-14 04:30N 29°36' W 094°56'510.6
2017-Aug-14 04:01N 29°40' W 094°59'4 7.4
2017-Aug-14 03:30N 29°43' W 095°01'0 0.7
2017-Aug-14 02:59N 29°44' W 095°01'0 0.0
2017-Aug-14 02:29N 29°44' W 095°01'0 0.0
2017-Aug-14 01:59N 29°44' W 095°01'0 0.0
2017-Aug-14 01:29N 29°44' W 095°01'0 0.0
2017-Aug-14 00:59N 29°44' W 095°01'0 0.0
2017-Aug-14 00:29N 29°44' W 095°01'0 0.0
2017-Aug-13 23:59N 29°44' W 095°01'0 0.0
2017-Aug-13 23:29N 29°44' W 095°01'0 0.0
2017-Aug-13 22:59N 29°44' W 095°01'0 0.0
2017-Aug-13 22:29N 29°44' W 095°01'0 0.0
2017-Aug-13 21:59N 29°44' W 095°01'0 0.0
2017-Aug-13 21:29N 29°44' W 095°01'0 0.0
2017-Aug-13 20:59N 29°44' W 095°01'0 0.0
2017-Aug-13 20:29N 29°44' W 095°01'0 0.0
2017-Aug-13 19:59N 29°44' W 095°01'0 0.0
2017-Aug-13 19:29N 29°44' W 095°01'0 0.0
2017-Aug-13 18:59N 29°44' W 095°01'0 0.0
2017-Aug-13 18:29N 29°44' W 095°01'0 0.0
2017-Aug-13 17:59N 29°44' W 095°01'0 0.0
2017-Aug-13 17:29N 29°44' W 095°01'0 0.0
2017-Aug-13 16:59N 29°44' W 095°01'0 0.0
2017-Aug-13 16:29N 29°44' W 095°01'0 0.0
2017-Aug-13 15:59N 29°44' W 095°01'0 0.0
2017-Aug-13 15:29N 29°44' W 095°01'0 0.0
2017-Aug-13 14:59N 29°44' W 095°01'0 0.0
2017-Aug-13 14:23N 29°44' W 095°01'0 0.0
2017-Aug-13 13:59N 29°44' W 095°01'0 0.0
2017-Aug-13 13:29N 29°44' W 095°01'0 0.0
2017-Aug-13 12:59N 29°44' W 095°01'0 0.0
2017-Aug-13 12:29N 29°44' W 095°01'0 0.0
2017-Aug-13 11:59N 29°44' W 095°01'0 0.0
2017-Aug-13 11:29N 29°44' W 095°01'0 0.0
2017-Aug-13 10:59N 29°44' W 095°01'0 0.0
2017-Aug-13 10:29N 29°44' W 095°01'0 0.0
2017-Aug-13 09:56N 29°44' W 095°01'0 0.0
2017-Aug-13 09:17N 29°44' W 095°01'0 0.0
2017-Aug-13 08:59N 29°44' W 095°01'0 0.0
2017-Aug-13 08:29N 29°44' W 095°01'0 0.0
2017-Aug-13 07:59N 29°44' W 095°01'0 0.0
2017-Aug-13 07:29N 29°44' W 095°01'0 0.0
2017-Aug-13 06:59N 29°44' W 095°01'0 0.0
2017-Aug-13 06:29N 29°44' W 095°01'0 0.0
2017-Aug-13 05:59N 29°44' W 095°01'0 0.0
2017-Aug-13 05:29N 29°44' W 095°01'0 0.0
2017-Aug-13 04:59N 29°44' W 095°01'0 0.0
2017-Aug-13 04:29N 29°44' W 095°01'0 0.0
2017-Aug-13 03:56N 29°44' W 095°01'0 0.0
2017-Aug-13 03:29N 29°44' W 095°01'0 0.0
2017-Aug-13 02:59N 29°44' W 095°01'0 0.0
2017-Aug-13 02:29N 29°44' W 095°01'0 0.0
2017-Aug-13 01:59N 29°44' W 095°01'0 0.0
2017-Aug-13 01:29N 29°44' W 095°01'0 0.0
2017-Aug-13 00:59N 29°44' W 095°01'0 0.0
2017-Aug-13 00:29N 29°44' W 095°01'0 0.0
2017-Aug-12 23:56N 29°44' W 095°01'0 0.4
2017-Aug-12 23:30N 29°44' W 095°01'2 4.3
2017-Aug-12 23:00N 29°42' W 094°60'4 8.7
2017-Aug-12 22:30N 29°38' W 094°58'5 9.8
2017-Aug-12 22:00N 29°34' W 094°55'5 9.8
2017-Aug-12 21:30N 29°30' W 094°52'5 9.5
2017-Aug-12 21:00N 29°25' W 094°50'5 9.2
2017-Aug-12 20:30N 29°21' W 094°47'11 0.7
2017-Aug-12 04:05N 29°13' W 094°39'0 0.0
2017-Aug-12 03:50N 29°13' W 094°39'  

Dump ship's entire track history